createdAt,value
2022-10-11T00:02:17.487Z,101514.31
2022-10-11T00:04:45.532Z,101509.81
2022-10-11T00:07:15.051Z,101513.63
2022-10-11T00:09:42.604Z,101513.47
2022-10-11T00:12:10.277Z,101515.97
2022-10-11T00:14:38.286Z,101525.28
2022-10-11T00:17:08.758Z,101521.78
2022-10-11T00:19:36.637Z,101524.28
2022-10-11T00:22:04.685Z,101528.25
2022-10-11T00:24:32.437Z,101531.91
2022-10-11T00:27:00.189Z,101526.94
2022-10-11T00:29:27.996Z,101527.59
2022-10-11T00:31:55.702Z,101531.91
2022-10-11T00:34:24.823Z,101533.09
2022-10-11T00:36:52.819Z,101537.88
2022-10-11T00:39:20.556Z,101537.09
2022-10-11T00:41:49.189Z,101539.44
2022-10-11T00:44:19.049Z,101539.56
2022-10-11T00:46:55.609Z,101537.94
2022-10-11T00:49:30.530Z,101546.53
2022-10-11T00:52:00.367Z,101543.28
2022-10-11T00:54:30.812Z,101545.44
2022-10-11T00:57:01.938Z,101542.91
2022-10-11T00:59:32.157Z,101545.25
2022-10-11T01:01:59.777Z,101541.25
2022-10-11T01:04:28.737Z,101539.94
2022-10-11T01:06:56.724Z,101544.25
2022-10-11T01:09:24.863Z,101549.25
2022-10-11T01:11:54.207Z,101540.59
2022-10-11T01:15:06.458Z,101541.44
2022-10-11T01:17:41.814Z,101545.59
2022-10-11T01:20:25.161Z,101538.91
2022-10-11T01:23:20.462Z,101539.91
2022-10-11T01:26:00.846Z,101538.28
2022-10-11T01:28:40.833Z,101538.97
2022-10-11T01:31:15.637Z,101539.63
2022-10-11T01:33:47.209Z,101543.78
2022-10-11T01:36:19.686Z,101539.28
2022-10-11T01:38:50.671Z,101552.09
2022-10-11T01:41:22.303Z,101541.59
2022-10-11T01:43:50.812Z,101547.59
2022-10-11T01:46:20.927Z,101541.25
2022-10-11T01:48:50.877Z,101537.59
2022-10-11T01:51:21.116Z,101544.28
2022-10-11T01:54:16.407Z,101545.28
2022-10-11T01:56:57.382Z,101547.75
2022-10-11T01:59:40.286Z,101546.56
2022-10-11T02:02:14.946Z,101543.91
2022-10-11T02:04:45.704Z,101550.28
2022-10-11T02:07:19.445Z,101545.28
2022-10-11T02:09:49.548Z,101546.75
2022-10-11T02:12:23.283Z,101551.09
2022-10-11T02:14:52.297Z,101550.19
2022-10-11T02:17:23.805Z,101553.53
2022-10-11T02:19:54.424Z,101549.81
2022-10-11T02:22:25.375Z,101557.13
2022-10-11T02:24:57.305Z,101557.81
2022-10-11T02:27:29.392Z,101547.78
2022-10-11T02:29:58.632Z,101543.44
2022-10-11T02:32:28.278Z,101544.91
2022-10-11T02:34:59.840Z,101548.13
2022-10-11T02:37:32.638Z,101558.63
2022-10-11T02:40:04.217Z,101552.31
2022-10-11T02:42:38.215Z,101548.97
2022-10-11T02:45:09.174Z,101557.88
2022-10-11T02:47:38.141Z,101558.41
2022-10-11T02:50:11.238Z,101558.19
2022-10-11T02:52:39.192Z,101565.34
2022-10-11T02:55:09.569Z,101574.22
2022-10-11T02:57:37.392Z,101574.72
2022-10-11T03:00:06.133Z,101573.88
2022-10-11T03:02:33.968Z,101576.72
2022-10-11T03:05:03.104Z,101573.09
2022-10-11T03:07:30.711Z,101580.44
2022-10-11T03:09:58.671Z,101586.75
2022-10-11T03:12:26.581Z,101582.41
2022-10-11T03:14:54.580Z,101584.56
2022-10-11T03:17:36.262Z,101588.13
2022-10-11T03:20:07.358Z,101591.13
2022-10-11T03:22:35.158Z,101594.16
2022-10-11T03:25:04.317Z,101596.81
2022-10-11T03:27:34.311Z,101599.81
2022-10-11T03:30:02.068Z,101609.81
2022-10-11T03:32:30.551Z,101607.50
2022-10-11T03:34:58.931Z,101613.84
2022-10-11T03:37:28.105Z,101605.69
2022-10-11T03:39:55.826Z,101614.34
2022-10-11T03:42:23.615Z,101613.81
2022-10-11T03:44:52.251Z,101612.47
2022-10-11T03:47:19.976Z,101602.78
2022-10-11T03:49:47.540Z,101609.25
2022-10-11T03:52:15.294Z,101610.75
2022-10-11T03:54:45.328Z,101616.44
2022-10-11T03:57:12.890Z,101613.44
2022-10-11T03:59:40.566Z,101615.09
2022-10-11T04:02:08.194Z,101632.81
2022-10-11T04:04:36.315Z,101628.94
2022-10-11T04:07:03.932Z,101629.47
2022-10-11T04:09:31.918Z,101619.59
2022-10-11T04:12:00.847Z,101617.75
2022-10-11T04:14:28.571Z,101629.47
2022-10-11T04:17:00.230Z,101629.44
2022-10-11T04:19:28.714Z,101631.25
2022-10-11T04:21:56.503Z,101628.09
2022-10-11T04:24:24.443Z,101622.69
2022-10-11T04:26:52.362Z,101624.81
2022-10-11T04:29:21.718Z,101629.56
2022-10-11T04:31:49.368Z,101624.31
2022-10-11T04:34:17.450Z,101629.41
2022-10-11T04:36:49.049Z,101624.69
2022-10-11T04:39:17.748Z,101628.03
2022-10-11T04:41:45.503Z,101633.50
2022-10-11T04:44:13.051Z,101623.44
2022-10-11T04:46:42.303Z,101632.88
2022-10-11T04:49:10.113Z,101631.16
2022-10-11T04:51:38.472Z,101629.84
2022-10-11T04:54:06.351Z,101637.09
2022-10-11T04:56:34.944Z,101640.06
2022-10-11T04:59:03.352Z,101635.13
2022-10-11T05:01:31.231Z,101638.13
2022-10-11T05:04:00.424Z,101628.44
2022-10-11T05:06:28.181Z,101638.81
2022-10-11T05:08:55.868Z,101635.38
2022-10-11T05:11:23.444Z,101631.50
2022-10-11T05:13:51.504Z,101621.13
2022-10-11T05:16:19.918Z,101632.47
2022-10-11T05:18:47.464Z,101621.94
2022-10-11T05:21:19.815Z,101621.81
2022-10-11T05:23:48.906Z,101621.78
2022-10-11T05:26:17.715Z,101622.28
2022-10-11T05:28:45.998Z,101628.78
2022-10-11T05:31:13.847Z,101623.78
2022-10-11T05:33:42.055Z,101629.59
2022-10-11T05:36:10.346Z,101628.75
2022-10-11T05:38:39.603Z,101629.09
2022-10-11T05:41:09.587Z,101635.53
2022-10-11T05:43:37.500Z,101627.34
2022-10-11T05:46:05.850Z,101633.19
2022-10-11T05:48:34.567Z,101636.13
2022-10-11T05:51:03.352Z,101640.47
2022-10-11T05:53:31.705Z,101638.25
2022-10-11T05:56:00.767Z,101640.47
2022-10-11T05:58:29.013Z,101652.13
2022-10-11T06:00:57.071Z,101653.53
2022-10-11T06:03:24.903Z,101654.47
2022-10-11T06:05:56.783Z,101664.03
2022-10-11T06:08:25.841Z,101659.94
2022-10-11T06:10:53.654Z,101667.44
2022-10-11T06:13:22.793Z,101670.28
2022-10-11T06:15:50.736Z,101674.38
2022-10-11T06:18:18.505Z,101688.19
2022-10-11T06:20:46.264Z,101681.75
2022-10-11T06:23:14.060Z,101686.50
2022-10-11T06:25:41.624Z,101689.78
2022-10-11T06:28:09.573Z,101697.31
2022-10-11T06:30:39.816Z,101698.94
2022-10-11T06:33:08.357Z,101704.34
2022-10-11T06:35:35.930Z,101709.53
2022-10-11T06:38:03.943Z,101715.81
2022-10-11T06:40:31.551Z,101717.56
2022-10-11T06:42:59.639Z,101719.59
2022-10-11T06:45:27.433Z,101726.13
2022-10-11T06:47:56.789Z,101729.63
2022-10-11T06:50:41.008Z,101732.59
2022-10-11T06:53:12.447Z,101734.31
2022-10-11T06:55:39.938Z,101736.44
2022-10-11T06:58:07.452Z,101745.66
2022-10-11T07:00:34.975Z,101741.88
2022-10-11T07:03:04.732Z,101745.53
2022-10-11T07:05:33.373Z,101748.69
2022-10-11T07:08:01.615Z,101753.31
2022-10-11T07:10:29.429Z,101752.94
2022-10-11T07:12:56.896Z,101743.97
2022-10-11T07:15:24.404Z,101745.63
2022-10-11T07:17:51.971Z,101758.31
2022-10-11T07:20:20.911Z,101753.69
2022-10-11T07:22:48.446Z,101762.03
2022-10-11T07:25:16.011Z,101759.69
2022-10-11T07:27:43.678Z,101767.38
2022-10-11T07:30:12.101Z,101762.75
2022-10-11T07:32:39.627Z,101766.72
2022-10-11T07:35:07.667Z,101761.91
2022-10-11T07:37:36.786Z,101759.59
2022-10-11T07:40:06.835Z,101762.47
2022-10-11T07:42:34.620Z,101763.81
2022-10-11T07:45:02.316Z,101762.81
2022-10-11T07:47:29.848Z,101750.84
2022-10-11T07:49:57.547Z,101758.53
2022-10-11T07:52:25.667Z,101750.88
2022-10-11T07:54:54.541Z,101751.22
2022-10-11T07:57:22.096Z,101742.88
2022-10-11T07:59:50.441Z,101756.22
2022-10-11T08:02:18.036Z,101750.19
2022-10-11T08:04:45.538Z,101747.50
2022-10-11T08:07:13.089Z,101743.47
2022-10-11T08:09:40.736Z,101743.78
2022-10-11T08:12:10.034Z,101744.53
2022-10-11T08:14:37.644Z,101751.31
2022-10-11T08:17:05.214Z,101748.59
2022-10-11T08:19:32.785Z,101750.88
2022-10-11T08:22:00.461Z,101758.16
2022-10-11T08:24:27.976Z,101750.97
2022-10-11T08:26:56.043Z,101757.22
2022-10-11T08:29:25.489Z,101762.69
2022-10-11T08:31:52.983Z,101771.25
2022-10-11T08:34:20.569Z,101780.00
2022-10-11T08:36:48.531Z,101797.50
2022-10-11T08:39:16.080Z,101791.66
2022-10-11T08:41:47.023Z,101784.84
2022-10-11T08:44:46.418Z,101791.25
2022-10-11T08:47:22.577Z,101787.72
2022-10-11T08:49:50.798Z,101801.59
2022-10-11T08:52:22.991Z,101801.94
2022-10-11T08:54:53.148Z,101799.44
2022-10-11T08:57:22.700Z,101802.09
2022-10-11T08:59:54.562Z,101804.72
2022-10-11T09:02:49.331Z,101808.16
2022-10-11T09:05:20.743Z,101812.22
2022-10-11T09:07:54.036Z,101810.09
2022-10-11T09:10:50.954Z,101807.91
2022-10-11T09:13:43.559Z,101809.50
2022-10-11T09:16:18.633Z,101807.19
2022-10-11T09:18:55.807Z,101817.41
2022-10-11T09:21:30.742Z,101812.94
2022-10-11T09:24:22.850Z,101815.91
2022-10-11T09:26:56.145Z,101814.81
2022-10-11T09:29:36.054Z,101811.84
2022-10-11T09:32:14.077Z,101809.03
2022-10-11T09:34:41.795Z,101817.38
2022-10-11T09:37:17.461Z,101811.25
2022-10-11T09:39:50.803Z,101816.06
2022-10-11T09:42:18.341Z,101808.72
2022-10-11T09:44:48.294Z,101807.94
2022-10-11T09:47:19.538Z,101806.34
2022-10-11T09:49:50.372Z,101802.81
2022-10-11T09:52:20.048Z,101809.19
2022-10-11T09:54:49.368Z,101813.03
2022-10-11T09:57:22.259Z,101803.53
2022-10-11T10:00:01.503Z,101812.22
2022-10-11T10:02:31.404Z,101817.34
2022-10-11T10:05:01.962Z,101821.81
2022-10-11T10:07:31.468Z,101814.75
2022-10-11T10:09:59.525Z,101813.97
2022-10-11T10:12:30.079Z,101818.38
2022-10-11T10:15:08.129Z,101829.44
2022-10-11T10:17:37.335Z,101820.38
2022-10-11T10:20:06.261Z,101822.88
2022-10-11T10:22:35.524Z,101819.59
2022-10-11T10:25:07.887Z,101827.88
2022-10-11T10:27:35.545Z,101823.56
2022-10-11T10:30:14.398Z,101815.59
2022-10-11T10:32:48.670Z,101826.66
2022-10-11T10:35:27.381Z,101828.34
2022-10-11T10:38:02.047Z,101823.66
2022-10-11T10:40:34.021Z,101809.72
2022-10-11T10:43:01.572Z,101815.47
2022-10-11T10:45:34.509Z,101819.44
2022-10-11T10:48:16.675Z,101819.44
2022-10-11T10:50:50.653Z,101818.00
2022-10-11T10:53:26.485Z,101824.66
2022-10-11T10:56:00.551Z,101821.88
2022-10-11T10:58:46.784Z,101815.88
2022-10-11T11:01:16.366Z,101821.50
2022-10-11T11:03:48.604Z,101804.78
2022-10-11T11:06:23.241Z,101816.72
2022-10-11T11:09:01.317Z,101807.56
2022-10-11T11:11:48.750Z,101813.31
2022-10-11T11:14:26.728Z,101805.69
2022-10-11T11:16:58.366Z,101796.81
2022-10-11T11:19:38.302Z,101803.69
2022-10-11T11:22:11.781Z,101802.69
2022-10-11T11:24:45.778Z,101792.53
2022-10-11T11:27:19.588Z,101786.50
2022-10-11T11:29:55.642Z,101807.22
2022-10-11T11:32:29.433Z,101795.56
2022-10-11T11:35:01.158Z,101793.97
2022-10-11T11:37:32.292Z,101791.28
2022-10-11T11:40:04.077Z,101789.84
2022-10-11T11:42:36.129Z,101777.38
2022-10-11T11:45:06.567Z,101782.72
2022-10-11T11:47:36.803Z,101780.91
2022-10-11T11:50:22.129Z,101792.41
2022-10-11T11:52:53.648Z,101777.31
2022-10-11T11:55:27.820Z,101769.31
2022-10-11T11:58:06.772Z,101779.66
2022-10-11T12:00:38.168Z,101766.94
2022-10-11T12:03:10.884Z,101755.94
2022-10-11T12:05:40.077Z,101761.78
2022-10-11T12:08:09.056Z,101755.09
2022-10-11T12:10:38.672Z,101771.59
2022-10-11T12:13:21.500Z,101752.47
2022-10-11T12:16:10.757Z,101756.38
2022-10-11T12:18:49.530Z,101755.16
2022-10-11T12:21:27.412Z,101763.66
2022-10-11T12:23:56.127Z,101761.91
2022-10-11T12:26:38.469Z,101739.88
2022-10-11T12:29:42.163Z,101742.69
2022-10-11T12:32:48.939Z,101750.06
2022-10-11T12:35:43.448Z,101760.88
2022-10-11T12:38:21.994Z,101755.28
2022-10-11T12:40:51.163Z,101749.25
2022-10-11T12:43:33.716Z,101740.97
2022-10-11T12:46:34.909Z,101745.81
2022-10-11T12:49:14.183Z,101739.44
2022-10-11T12:51:46.770Z,101749.59
2022-10-11T12:54:33.323Z,101735.09
2022-10-11T12:57:26.383Z,101742.66
2022-10-11T12:59:54.020Z,101724.34
2022-10-11T13:02:28.851Z,101724.78
2022-10-11T13:05:07.559Z,101722.75
2022-10-11T13:07:36.038Z,101736.94
2022-10-11T13:10:06.688Z,101722.09
2022-10-11T13:12:40.389Z,101722.91
2022-10-11T13:15:12.660Z,101730.41
2022-10-11T13:17:42.894Z,101731.47
2022-10-11T13:20:17.699Z,101716.09
2022-10-11T13:22:47.213Z,101743.88
2022-10-11T13:25:19.861Z,101728.81
2022-10-11T13:27:48.202Z,101713.13
2022-10-11T13:30:19.398Z,101741.56
2022-10-11T13:32:47.337Z,101730.03
2022-10-11T13:35:22.349Z,101739.97
2022-10-11T13:37:52.480Z,101713.56
2022-10-11T13:40:22.372Z,101739.31
2022-10-11T13:42:51.544Z,101742.75
2022-10-11T13:45:21.624Z,101715.78
2022-10-11T13:47:50.055Z,101716.03
2022-10-11T13:50:26.390Z,101727.59
2022-10-11T13:52:57.054Z,101724.56
2022-10-11T13:55:29.109Z,101718.88
2022-10-11T13:57:58.673Z,101724.00
2022-10-11T14:00:32.697Z,101725.66
2022-10-11T14:03:03.914Z,101729.84
2022-10-11T14:05:36.948Z,101708.84
2022-10-11T14:08:07.583Z,101700.91
2022-10-11T14:10:36.582Z,101708.72
2022-10-11T14:13:07.814Z,101702.69
2022-10-11T14:15:37.303Z,101709.50
2022-10-11T14:18:27.868Z,101697.03
2022-10-11T14:20:55.593Z,101719.44
2022-10-11T14:23:23.142Z,101706.25
2022-10-11T14:25:54.117Z,101696.47
2022-10-11T14:28:21.692Z,101714.44
2022-10-11T14:30:49.336Z,101704.69
2022-10-11T14:33:16.971Z,101729.78
2022-10-11T14:35:44.451Z,101721.97
2022-10-11T14:38:12.807Z,101707.19
2022-10-11T14:40:40.551Z,101715.75
2022-10-11T14:43:09.448Z,101714.41
2022-10-11T14:45:37.017Z,101696.06
2022-10-11T14:48:05.156Z,101704.06
2022-10-11T14:50:40.368Z,101723.56
2022-10-11T14:53:08.988Z,101715.84
2022-10-11T14:55:37.368Z,101708.47
2022-10-11T14:58:04.959Z,101699.38
2022-10-11T15:00:34.277Z,101692.41
2022-10-11T15:03:02.093Z,101707.16
2022-10-11T15:05:35.930Z,101713.81
2022-10-11T15:08:03.616Z,101702.09
2022-10-11T15:10:35.793Z,101705.59
2022-10-11T15:13:04.669Z,101697.44
2022-10-11T15:15:36.623Z,101695.75
2022-10-11T15:18:06.001Z,101686.88
2022-10-11T15:20:35.798Z,101702.81
2022-10-11T15:23:05.939Z,101720.31
2022-10-11T15:25:33.802Z,101696.91
2022-10-11T15:28:01.639Z,101714.78
2022-10-11T15:30:31.580Z,101692.97
2022-10-11T15:33:00.652Z,101686.16
2022-10-11T15:35:29.550Z,101684.53
2022-10-11T15:37:59.343Z,101707.84
2022-10-11T15:40:28.756Z,101713.28
2022-10-11T15:42:56.726Z,101706.66
2022-10-11T15:45:24.868Z,101707.47
2022-10-11T15:47:52.747Z,101701.72
2022-10-11T15:50:35.051Z,101689.88
2022-10-11T15:53:03.807Z,101693.78
2022-10-11T15:55:31.992Z,101689.47
2022-10-11T15:58:01.068Z,101692.59
2022-10-11T16:00:29.310Z,101678.72
2022-10-11T16:02:57.885Z,101696.31
2022-10-11T16:05:28.549Z,101694.19
2022-10-11T16:07:56.232Z,101692.94
2022-10-11T16:10:23.982Z,101691.88
2022-10-11T16:12:51.529Z,101692.38
2022-10-11T16:15:19.093Z,101698.91
2022-10-11T16:17:47.069Z,101696.44
2022-10-11T16:20:15.488Z,101693.97
2022-10-11T16:22:44.425Z,101705.16
2022-10-11T16:25:11.998Z,101712.16
2022-10-11T16:27:39.544Z,101703.16
2022-10-11T16:30:11.997Z,101706.34
2022-10-11T16:32:40.039Z,101700.91
2022-10-11T16:35:09.546Z,101702.03
2022-10-11T16:37:37.267Z,101701.88
2022-10-11T16:40:07.440Z,101698.94
2022-10-11T16:42:35.172Z,101703.41
2022-10-11T16:45:02.753Z,101701.06
2022-10-11T16:47:30.744Z,101697.34
2022-10-11T16:49:59.169Z,101700.81
2022-10-11T16:52:26.774Z,101701.09
2022-10-11T16:54:54.588Z,101679.88
2022-10-11T16:57:23.473Z,101686.84
2022-10-11T16:59:51.534Z,101694.50
2022-10-11T17:02:20.423Z,101681.41
2022-10-11T17:04:50.724Z,101683.81
2022-10-11T17:07:18.770Z,101698.00
2022-10-11T17:09:48.664Z,101696.94
2022-10-11T17:12:17.698Z,101697.69
2022-10-11T17:14:47.525Z,101698.16
2022-10-11T17:17:15.693Z,101708.03
2022-10-11T17:19:45.328Z,101698.88
2022-10-11T17:22:14.967Z,101708.59
2022-10-11T17:24:42.736Z,101689.88
2022-10-11T17:27:10.346Z,101691.91
2022-10-11T17:29:38.396Z,101691.13
2022-10-11T17:32:07.642Z,101702.03
2022-10-11T17:34:35.449Z,101698.03
2022-10-11T17:37:06.860Z,101701.00
2022-10-11T17:39:39.312Z,101699.75
2022-10-11T17:42:07.525Z,101692.56
2022-10-11T17:44:36.903Z,101701.66
2022-10-11T17:47:05.195Z,101709.69
2022-10-11T17:49:36.415Z,101710.53
2022-10-11T17:52:04.250Z,101705.84
2022-10-11T17:54:32.628Z,101702.19
2022-10-11T17:57:00.433Z,101701.38
2022-10-11T17:59:28.785Z,101702.69
2022-10-11T18:01:56.593Z,101706.03
2022-10-11T18:04:27.151Z,101698.53
2022-10-11T18:06:56.086Z,101702.72
2022-10-11T18:09:24.942Z,101695.53
2022-10-11T18:11:52.756Z,101698.53
2022-10-11T18:14:21.295Z,101706.88
2022-10-11T18:16:48.969Z,101702.84
2022-10-11T18:19:21.094Z,101707.56
2022-10-11T18:21:48.636Z,101700.38
2022-10-11T18:24:21.935Z,101698.88
2022-10-11T18:26:49.668Z,101694.53
2022-10-11T18:29:17.254Z,101698.34
2022-10-11T18:31:45.093Z,101700.88
2022-10-11T18:34:14.895Z,101702.50
2022-10-11T18:36:46.954Z,101704.50
2022-10-11T18:39:17.096Z,101693.84
2022-10-11T18:41:45.249Z,101700.84
2022-10-11T18:44:15.186Z,101700.50
2022-10-11T18:46:43.105Z,101692.88
2022-10-11T18:49:11.413Z,101689.34
2022-10-11T18:51:40.191Z,101689.34
2022-10-11T18:54:09.612Z,101691.16
2022-10-11T18:56:39.525Z,101695.03
2022-10-11T18:59:07.733Z,101695.69
2022-10-11T19:01:38.272Z,101690.94
2022-10-11T19:04:07.615Z,101689.81
2022-10-11T19:06:37.849Z,101687.34
2022-10-11T19:09:07.467Z,101682.47
2022-10-11T19:11:39.014Z,101678.81
2022-10-11T19:14:11.419Z,101683.78
2022-10-11T19:16:41.430Z,101678.63
2022-10-11T19:19:09.684Z,101682.13
2022-10-11T19:21:37.655Z,101675.75
2022-10-11T19:24:06.789Z,101679.81
2022-10-11T19:26:36.039Z,101680.31
2022-10-11T19:29:06.508Z,101686.75
2022-10-11T19:31:37.012Z,101673.81
2022-10-11T19:34:05.019Z,101674.75
2022-10-11T19:36:36.458Z,101677.38
2022-10-11T19:39:05.919Z,101674.72
2022-10-11T19:41:33.471Z,101669.63
2022-10-11T19:44:01.015Z,101666.38
2022-10-11T19:46:50.512Z,101661.44
2022-10-11T19:49:21.435Z,101660.91
2022-10-11T19:51:49.492Z,101675.50
2022-10-11T19:54:17.621Z,101667.06
2022-10-11T19:56:45.498Z,101667.97
2022-10-11T19:59:16.822Z,101667.28
2022-10-11T20:01:49.402Z,101670.63
2022-10-11T20:07:09.090Z,101669.25
2022-10-11T20:09:38.110Z,101674.91
2022-10-11T20:12:06.031Z,101665.69
2022-10-11T20:14:33.952Z,101673.50
2022-10-11T20:17:02.178Z,101683.75
2022-10-11T20:19:31.846Z,101681.44
2022-10-11T20:22:00.249Z,101674.53
2022-10-11T20:24:32.948Z,101678.13
2022-10-11T20:27:01.878Z,101686.34
2022-10-11T20:29:29.560Z,101675.63
2022-10-11T20:31:58.773Z,101679.25
2022-10-11T20:34:31.175Z,101682.06
2022-10-11T20:37:00.359Z,101672.53
2022-10-11T20:39:27.931Z,101676.47
2022-10-11T20:41:55.650Z,101681.13
2022-10-11T20:44:23.812Z,101671.00
2022-10-11T20:46:51.358Z,101677.28
2022-10-11T20:49:20.777Z,101673.16
2022-10-11T20:51:48.376Z,101669.47
2022-10-11T20:54:17.737Z,101665.91
2022-10-11T20:56:45.273Z,101670.38
2022-10-11T20:59:12.829Z,101670.47
2022-10-11T21:01:41.922Z,101673.66
2022-10-11T21:04:17.719Z,101683.53
2022-10-11T21:06:46.610Z,101675.06
2022-10-11T21:09:16.585Z,101682.66
2022-10-11T21:11:46.693Z,101671.69
2022-10-11T21:14:14.472Z,101662.66
2022-10-11T21:16:42.072Z,101675.56
2022-10-11T21:19:14.386Z,101668.44
2022-10-11T21:21:41.963Z,101670.63
2022-10-11T21:24:09.506Z,101668.34
2022-10-11T21:26:37.434Z,101668.16
2022-10-11T21:29:06.501Z,101668.84
2022-10-11T21:31:34.700Z,101670.63
2022-10-11T21:34:02.773Z,101668.66
2022-10-11T21:36:30.540Z,101665.72
2022-10-11T21:38:58.488Z,101666.06
2022-10-11T21:41:29.174Z,101663.03
2022-10-11T21:43:57.091Z,101669.88
2022-10-11T21:46:47.561Z,101665.94
2022-10-11T21:49:15.327Z,101673.97
2022-10-11T21:51:43.065Z,101670.34
2022-10-11T21:54:10.849Z,101671.13
2022-10-11T21:56:38.536Z,101663.34
2022-10-11T21:59:09.419Z,101675.13
2022-10-11T22:01:42.140Z,101674.91
2022-10-11T22:04:09.945Z,101671.25
2022-10-11T22:06:38.225Z,101680.81
2022-10-11T22:09:06.897Z,101672.75
2022-10-11T22:11:34.429Z,101665.72
2022-10-11T22:14:02.539Z,101669.66
2022-10-11T22:16:30.067Z,101668.06
2022-10-11T22:18:59.933Z,101676.88
2022-10-11T22:21:28.038Z,101667.03
2022-10-11T22:23:55.865Z,101665.63
2022-10-11T22:26:25.122Z,101672.16
2022-10-11T22:28:53.496Z,101668.06
2022-10-11T22:31:22.494Z,101671.19
2022-10-11T22:33:50.104Z,101676.38
2022-10-11T22:36:19.330Z,101679.25
2022-10-11T22:38:47.316Z,101675.63
2022-10-11T22:41:14.888Z,101679.09
2022-10-11T22:43:42.479Z,101671.25
2022-10-11T22:46:10.053Z,101672.66
2022-10-11T22:48:37.948Z,101664.91
2022-10-11T22:51:05.700Z,101673.16
2022-10-11T22:53:34.667Z,101667.88
2022-10-11T22:56:02.284Z,101667.81
2022-10-11T22:58:29.973Z,101665.63
2022-10-11T23:00:57.475Z,101666.28
2022-10-11T23:03:25.183Z,101664.44
2022-10-11T23:05:56.489Z,101663.47
2022-10-11T23:08:24.588Z,101666.00
2022-10-11T23:10:53.873Z,101658.31
2022-10-11T23:13:21.679Z,101656.69
2022-10-11T23:15:49.622Z,101660.81
2022-10-11T23:18:17.668Z,101657.75
2022-10-11T23:20:45.723Z,101663.69
2022-10-11T23:23:13.488Z,101665.44
2022-10-11T23:25:41.048Z,101661.63
2022-10-11T23:28:10.569Z,101658.56
2022-10-11T23:30:40.423Z,101659.91
2022-10-11T23:33:08.010Z,101659.91
2022-10-11T23:35:36.376Z,101660.47
2022-10-11T23:38:03.932Z,101658.88
2022-10-11T23:40:31.643Z,101655.19
2022-10-11T23:42:59.367Z,101656.00
2022-10-11T23:45:28.824Z,101651.16
2022-10-11T23:47:56.335Z,101654.19
2022-10-11T23:50:23.823Z,101664.31
2022-10-11T23:52:51.500Z,101659.59
2022-10-11T23:55:19.261Z,101661.16
2022-10-11T23:57:47.492Z,101662.88
